Terminal Aerodrome Forecast
Issued by NWS

Home | Current Version | Previous Version | Text Only | Print | Product List | Glossary On
Versions: 1 2 3 4 5 6 7 8 9 10 11 12 13 14 15
426
FTUS46 KMTR 012321
TAFSNS
TAF
KSNS 012321Z 0200/0224 31010KT P6SM SKC
     FM020300 VRB03KT P6SM BKN012
     FM021000 12008KT P6SM OVC010
     FM021700 11006KT P6SM SCT200
     FM022000 30010KT P6SM SCT200=

USA.gov is the U.S. government's official web portal to all federal, state and local government web resources and services.